Decoded Metar for CYNE (NORWAY HOUSE ARP in MB, CANADA) (IATA:YNE) | Meteo·Mobile Aviation Weather
aviador You're here:

CYNE Decoded Metar

NORWAY HOUSE ARP in MB, CANADA
Report Time2019-10-20 23:31:00
UTC Time2019-10-20 23:37:24
Flight Rules vfr VFR
Wind180° at 04 kt
W.Decomp.*RWY 24: 1.7 kt HW 3.6 kt LCW
Visibility9999 m
Phenomena:N/A
Clouds:Few 008 Hf
Scattered 017 Hf
CeilingNone
Temp05°C (ISA -9)
Dew Point05°C (100% RH)
AAT2.4°C
QNH1006 hPa
Density Alt62 ft
Elevation732 ft
Report Wrong Elevation
Raw Report
SPECI CYNE 202331Z AUTO 18004KT 9SM FEW008 SCT017 05/05 A2972 RMK SLP079=

Extra information for CYNE:More info

Metar Taf Metar & Taf Last 4 Metars F.Rules Stats Wind Profile Meteogram Temp Stats Airport Information Weather charts Add Link Nearby VenuesMetar ALERT Operation Metar Decoded Social comments